Wilson, Idaho
Current Conditions -  °F | °C
As of 4:15 PM on Tuesday 25 Nov 2014 (Local Time) from KMAN Reporting Station
Clear Clear  
Wind Chill: 57°   Ceiling: Unl
Heat Index: 57°   Visibility: 10mi
Dew Point: 43°   Wind: 16mph
Humidity: 59%   Direction: 270°W
Pressure: 30.24"   Gusts: 20mph
Location:  43.3697°N, 116.52°W
Report Text: KMAN 252315Z AUTO 27014G17KT 10SM CLR 14/06 A3024 RMK AO1
Loading
Personal Weather Stations






























Interactive Weather Map New forecast layout! Learn more

10-Day Weather Forecast

Advertisements
Track Severe Weather on mobile